Data for 07/04/2015

Time Sea-Level Adjusted Pressure Absolute Pressure Temperature Relative Humidity Dew Point   
(mb) (inHg) (mb) (inHg) (C) (F) (%) (C) (F)
00:05 1016 30 846 24.98 19.3 66.7 42 6.1 43
00:10 1016 30 846 24.98 19.5 67 36 4 39.2
00:15 1016 30 846 24.98 19.8 67.6 37 5 40.9
00:20 1016 30 846 24.98 19.7 67.4 38 5 41
00:25 1016 30 846 24.98 19.5 67.2 44 7 44.5
00:30 1016 30 846 24.98 19.1 66.5 42 6.2 43.1
00:35 1016 30 846 24.98 18.6 65.4 43 6 42.7
00:40 1016 30 846 24.98 18.2 64.8 43 5.7 42.2
00:45 1016 30 846 24.98 18.1 64.5 44 5.8 42.4
00:50 1016 30 846 24.98 18.2 64.7 49 7.4 45.3
00:55 1016 30 846 24.98 18.3 65 42 5.3 41.6
01:00 1016 30 846 24.98 18.1 64.7 42 5.2 41.4
01:05 1016 30 846 24.98 18.1 64.5 41 4.8 40.7
01:10 1016 30 846 24.98 18 64.3 44 5.6 42.1
01:15 1016 30 846 24.98 17.6 63.7 46 5.9 42.5
01:20 1016 30 846 24.98 17.4 63.4 46 5.8 42.5
01:25 1016 30 846 24.98 17.6 63.6 44 5.3 41.6
01:30 1016 30 845 24.95 17.3 63.2 46 5.6 42.2
01:35 1016 30 846 24.98 17 62.5 46 5.5 41.9
01:40 1016 30 846 24.98 16.8 62.2 48 5.7 42.3
01:45 1016 30 846 24.98 16.9 62.5 45 5.2 41.3
01:50 1016 30 846 24.98 17.2 63 41 3.9 39
01:55 1016 30 846 24.98 17.8 64.1 41 4.4 40
02:00 1016 30 846 24.98 17.7 63.8 41 4.2 39.6
02:05 1016 30 846 24.98 18 64.3 39 4.1 39.3
02:10 1016 30 846 24.98 18.2 64.7 39 4.1 39.4
02:15 1016 30 846 24.98 18.1 64.5 40 4.3 39.8
02:20 1016 30 846 24.98 18 64.3 41 4.6 40.2
02:25 1016 30 846 24.98 17.6 63.7 42 4.8 40.6
02:30 1016 30 846 24.98 17.4 63.2 44 5 41
02:35 1016 30 846 24.98 17.2 63 42 4.3 39.8
02:40 1016 30 846 24.98 17.7 63.9 41 4.4 40
02:45 1016 30 846 24.98 17.6 63.6 42 4.8 40.6
02:50 1017 30.03 846 24.98 17.4 63.3 44 5.1 41.2
02:55 1017 30.03 846 24.98 17.3 63.1 44 4.9 40.8
03:00 1017 30.03 846 24.98 17.2 62.9 44 4.8 40.7
03:05 1017 30.03 846 24.98 17.1 62.7 43 4.7 40.4
03:10 1017 30.03 846 24.98 17.1 62.8 43 4.5 40
03:15 1017 30.03 846 24.98 17.3 63.1 44 5.1 41.2
03:20 1017 30.03 846 24.98 17.4 63.3 41 4.2 39.6
03:25 1017 30.03 846 24.98 17.7 63.9 40 4.2 39.5
03:30 1017 30.03 846 24.98 17.9 64.3 40 4.2 39.5
03:35 1017 30.03 846 24.98 18.2 64.7 39 4.2 39.5
03:40 1017 30.03 846 24.98 18.2 64.8 40 4.4 39.9
03:45 1017 30.03 846 24.98 18.1 64.6 41 4.7 40.4
03:50 1017 30.03 846 24.98 17.5 63.5 46 5.7 42.3
03:55 1017 30.03 846 24.98 16.8 62.3 46 5.3 41.5
04:00 1017 30.03 846 24.98 16.5 61.7 48 5.5 41.9
04:05 1017 30.03 846 24.98 16.4 61.6 44 4.3 39.7
04:10 1017 30.03 846 24.98 17.2 62.9 44 4.8 40.7
04:15 1017 30.03 846 24.98 17 62.6 46 5.6 42
04:20 1017 30.03 846 24.98 16.9 62.3 44 4.7 40.5
04:25 1017 30.03 846 24.98 16.7 62.1 46 5.1 41.2
04:30 1017 30.03 846 24.98 16.6 62 45 4.7 40.4
04:35 1017 30.03 846 24.98 16.5 61.6 46 4.9 40.8
04:40 1017 30.03 846 24.98 16.5 61.6 43 3.8 38.9
04:45 1017 30.03 846 24.98 17.2 62.9 42 4.2 39.6
04:50 1017 30.03 846 24.98 17.2 63 46 5.8 42.4
04:55 1017 30.03 846 24.98 17.1 62.7 43 4.5 40.1
05:00 1017 30.03 846 24.98 17 62.6 43 4.5 40.1
05:05 1017 30.03 846 24.98 17 62.5 44 4.8 40.7
05:10 1017 30.03 846 24.98 16.4 61.6 47 5.1 41.2
05:15 1017 30.03 846 24.98 16.9 62.3 41 3.6 38.5
05:20 1017 30.03 846 24.98 17.6 63.7 41 4.5 40.1
05:25 1017 30.03 846 24.98 17.6 63.7 41 4.5 40
05:30 1017 30.03 847 25.01 17.6 63.6 42 4.6 40.3
05:35 1017 30.03 847 25.01 17.3 63.2 43 4.8 40.6
05:40 1017 30.03 847 25.01 17.1 62.7 44 4.8 40.6
05:45 1017 30.03 847 25.01 17.1 62.7 45 5.1 41.1
05:50 1017 30.03 847 25.01 17 62.6 49 6.3 43.4
05:55 1018 30.06 847 25.01 17 62.6 46 5.2 41.4
06:00 1018 30.06 847 25.01 16.9 62.4 45 4.9 40.8
06:05 1018 30.06 847 25.01 17.4 63.3 43 4.8 40.7
06:10 1018 30.06 847 25.01 17.6 63.8 45 5.6 42.1
06:15 1018 30.06 847 25.01 17.7 63.8 46 5.9 42.6
06:20 1018 30.06 847 25.01 18.1 64.6 52 8.2 46.8
06:25 1018 30.06 847 25.01 18.5 65.2 42 5.3 41.6
06:30 1018 30.06 847 25.01 18.7 65.6 42 5.8 42.4
06:35 1018 30.06 847 25.01 18.8 65.9 43 6.2 43.2
06:40 1018 30.06 847 25.01 19.1 66.3 42 5.9 42.7
06:45 1018 30.06 847 25.01 19.2 66.6 40 5.6 42.1
06:50 1018 30.06 847 25.01 19.6 67.3 43 6.7 44.1
06:55 1017 30.03 847 25.01 20 68 42 7 44.5
07:00 1017 30.03 847 25.01 20.6 69 40 6.6 43.9
07:05 1017 30.03 847 25.01 21 69.8 39 6.7 44.1
07:10 1018 30.06 847 25.01 21.2 70.2 40 7.2 45
07:15 1018 30.06 847 25.01 21.9 71.3 38 7.1 44.8
07:20 1018 30.06 847 25.01 22.1 71.9 39 7.6 45.7
07:25 1018 30.06 847 25.01 22 71.7 39 7.5 45.6
07:30 1018 30.06 847 25.01 22.5 72.5 39 7.9 46.3
07:35 1018 30.06 847 25.01 22.8 73 36 7.3 45.2
07:40 1018 30.06 847 25.01 23 73.3 38 8.2 46.8
07:45 1018 30.06 847 25.01 23.8 74.8 37 8.5 47.4
07:50 1018 30.06 847 25.01 24.2 75.5 36 8.3 46.9
07:55 1018 30.06 847 25.01 24.3 75.8 33 7.3 45.1
08:00 1018 30.06 847 25.01 24.7 76.4 34 7.9 46.1
08:05 1018 30.06 847 25.01 24.8 76.7 34 8 46.5
08:10 1018 30.06 847 25.01 25.2 77.3 31 7 44.6
08:15 1018 30.06 847 25.01 25.6 78.1 30 6.8 44.3
08:20 1018 30.06 847 25.01 26.1 78.9 30 7.6 45.6
08:25 1018 30.06 847 25.01 25.6 78.1 30 7.1 44.7
08:30 1018 30.06 847 25.01 25.6 78 28 6.1 43
08:35 1018 30.06 847 25.01 25.4 77.7 28 5.8 42.4
08:40 1018 30.06 847 25.01 25.9 78.6 27 6 42.7
08:45 1018 30.06 847 25.01 26.7 80 25 5.2 41.3
08:50 1018 30.06 847 25.01 27.3 81.2 24 5.1 41.1
08:55 1018 30.06 847 25.01 27 80.5 24 4.9 40.8
09:00 1018 30.06 847 25.01 26.9 80.5 25 5.4 41.7
09:05 1018 30.06 847 25.01 27.5 81.4 24 5.3 41.5
09:10 1018 30.06 847 25.01 27.9 82.3 23 5.2 41.3
09:15 1018 30.06 847 25.01 28.3 83 22 4.8 40.7
09:20 1018 30.06 847 25.01 28.1 82.6 23 5.2 41.4
09:25 1018 30.06 847 25.01 28.3 82.9 22 4.7 40.5
09:30 1018 30.06 847 25.01 27.8 82.1 23 5.2 41.3
09:35 1018 30.06 847 25.01 28 82.5 23 5 41
09:40 1018 30.06 847 25.01 28 82.4 23 5.4 41.7
09:45 1017 30.03 847 25.01 28.4 83.2 22 4.7 40.5
09:50 1017 30.03 847 25.01 28.7 83.6 21 4.5 40.1
09:55 1017 30.03 847 25.01 28.4 83.2 21 4.1 39.3
10:00 1017 30.03 847 25.01 28.3 82.9 21 4.4 40
10:05 1017 30.03 847 25.01 28 82.4 22 4.8 40.6
10:10 1017 30.03 846 24.98 28.3 82.9 22 4.9 40.8
10:15 1017 30.03 847 25.01 28.9 84 21 4.6 40.4
10:20 1017 30.03 846 24.98 28.8 83.9 22 5.3 41.6
10:25 1017 30.03 846 24.98 28.8 83.9 22 5.3 41.5
10:30 1017 30.03 846 24.98 28.9 83.9 21 4.8 40.7
10:35 1017 30.03 846 24.98 28.9 84.1 21 4.4 40
10:40 1017 30.03 846 24.98 28.9 84 21 4.7 40.5
10:45 1017 30.03 846 24.98 29.1 84.3 21 5 41
10:50 1017 30.03 846 24.98 29.2 84.5 21 4.9 40.9
10:55 1017 30.03 846 24.98 29 84.2 20 4.3 39.8
11:00 1017 30.03 846 24.98 28.7 83.7 21 4.4 39.9
11:05 1017 30.03 846 24.98 29.3 84.7 20 4.5 40
11:10 1017 30.03 846 24.98 29 84.1 22 5.2 41.4
11:15 1017 30.03 846 24.98 29.9 85.8 19 4.2 39.6
11:20 1017 30.03 846 24.98 29.5 85.2 19 3.5 38.3
11:25 1017 30.03 846 24.98 29.5 85.1 19 4.1 39.5
11:30 1017 30.03 846 24.98 30.4 86.8 19 4.8 40.6
11:35 1017 30.03 846 24.98 30.4 86.6 19 4.4 40
11:40 1017 30.03 846 24.98 30.6 87 18 4.2 39.5
11:45 1017 30.03 846 24.98 30 86 18 3.3 38
11:50 1017 30.03 846 24.98 29.6 85.3 19 4 39.1
11:55 1016 30 846 24.98 29.3 84.8 19 3.4 38.2
12:00 1016 30 846 24.98 29.9 85.9 18 3.5 38.3
12:05 1016 30 846 24.98 29.5 85 19 3.7 38.6
12:10 1016 30 845 24.95 29.7 85.5 18 3.2 37.8
12:15 1016 30 845 24.95 29.6 85.4 19 4 39.3
12:20 1016 30 846 24.98 30.1 86.1 18 3.2 37.8
12:25 1016 30 845 24.95 29.5 85 18 3.2 37.7
12:30 1016 30 845 24.95 30.1 86.1 19 4.2 39.6
12:35 1016 30 845 24.95 30.6 87.2 17 3 37.3
12:40 1016 30 845 24.95 30.7 87.2 18 4.1 39.4
12:45 1016 30 845 24.95 31.2 88.2 17 3.8 38.9
12:50 1016 30 845 24.95 31.5 88.7 17 4.1 39.3
12:55 1016 30 845 24.95 31.9 89.3 17 4.4 39.9
13:00 1016 30 845 24.95 31.1 88 18 4 39.2
13:05 1016 30 845 24.95 30.6 87.1 17 3.4 38.1
13:10 1016 30 845 24.95 30.6 87.2 17 3.1 37.6
13:15 1016 30 845 24.95 31 87.8 17 3.8 38.9
13:20 1016 30 845 24.95 31.2 88.2 17 3.7 38.7
13:25 1016 30 845 24.95 31.3 88.4 16 3 37.5
13:30 1016 30 845 24.95 31.4 88.5 17 3.9 39.1
13:35 1016 30 845 24.95 31.8 89.3 17 4.1 39.3
13:40 1016 30 845 24.95 32.1 89.7 16 3.5 38.2
13:45 1015 29.97 845 24.95 32 89.5 15 2.8 37
13:50 1015 29.97 845 24.95 31.7 89.1 15 2.7 36.9
13:55 1015 29.97 845 24.95 31.8 89.2 15 2.7 36.9
14:00 1015 29.97 844 24.92 31.7 89.1 15 2.3 36.1
14:05 1015 29.97 844 24.92 31.4 88.6 16 3.4 38.1
14:10 1015 29.97 844 24.92 31.5 88.8 16 2.7 36.9
14:15 1015 29.97 844 24.92 31.8 89.3 16 3.3 38
14:20 1015 29.97 844 24.92 31.5 88.7 15 2.5 36.5
14:25 1015 29.97 844 24.92 31.8 89.3 15 2.7 36.8
14:30 1015 29.97 844 24.92 32.1 89.8 15 2.4 36.3
14:35 1015 29.97 844 24.92 32.1 89.7 15 2.9 37.3
14:40 1015 29.97 844 24.92 31.8 89.2 16 3.2 37.8
14:45 1015 29.97 844 24.92 31.3 88.3 15 2.4 36.3
14:50 1015 29.97 844 24.92 32.1 89.8 15 2.5 36.4
14:55 1015 29.97 844 24.92 32 89.7 15 2.6 36.6
15:00 1015 29.97 844 24.92 31.3 88.3 15 2.3 36.1
15:05 1015 29.97 844 24.92 31.1 88 15 1.9 35.5
15:10 1015 29.97 844 24.92 30.8 87.5 15 1.9 35.5
15:15 1014 29.94 844 24.92 31.1 87.9 15 2 35.5
15:20 1014 29.94 844 24.92 31.5 88.6 15 2.2 35.9
15:25 1014 29.94 843 24.89 31.7 89 14 1.4 34.6
15:30 1014 29.94 843 24.89 32.4 90.2 15 2.4 36.3
15:35 1014 29.94 843 24.89 32.4 90.2 15 3.1 37.5
15:40 1014 29.94 843 24.89 32 89.7 14 1.9 35.4
15:45 1014 29.94 843 24.89 32.4 90.2 14 1.9 35.4
15:50 1014 29.94 843 24.89 31.8 89.2 15 2.4 36.4
15:55 1014 29.94 843 24.89 31.2 88.2 15 1.6 34.9
16:00 1014 29.94 843 24.89 31.6 88.9 15 1.9 35.4
16:05 1014 29.94 843 24.89 31.5 88.6 15 2.1 35.7
16:10 1014 29.94 843 24.89 31.5 88.7 15 2.1 35.8
16:15 1014 29.94 843 24.89 30.9 87.7 15 1.8 35.2
16:20 1014 29.94 843 24.89 30.9 87.7 15 1.7 35.1
16:25 1014 29.94 843 24.89 31.9 89.4 14 1.9 35.5
16:30 1014 29.94 843 24.89 32.4 90.3 15 2.5 36.5
16:35 1014 29.94 843 24.89 32.3 90.1 14 2.1 35.7
16:40 1014 29.94 843 24.89 32.2 90 14 2.1 35.8
16:45 1014 29.94 843 24.89 32 89.6 14 2 35.6
16:50 1014 29.94 843 24.89 32 89.5 14 1.8 35.3
16:55 1014 29.94 843 24.89 32.1 89.7 14 1.9 35.4
17:00 1014 29.94 843 24.89 31.3 88.3 15 1.8 35.2
17:05 1013 29.91 843 24.89 30.9 87.7 15 2 35.5
17:10 1013 29.91 843 24.89 31.3 88.3 15 1.9 35.4
17:15 1013 29.91 843 24.89 30.9 87.6 15 1.5 34.6
17:20 1013 29.91 843 24.89 30.9 87.7 15 1.4 34.6
17:25 1013 29.91 843 24.89 31 87.7 15 1.6 34.9
17:30 1013 29.91 843 24.89 31.3 88.3 14 1.1 34
17:35 1013 29.91 843 24.89 31.3 88.4 14 1.2 34.2
17:40 1013 29.91 843 24.89 31.7 89.1 14 1.6 35
17:45 1013 29.91 843 24.89 32.1 89.7 14 1.9 35.3
17:50 1013 29.91 843 24.89 32.2 89.9 14 1.5 34.7
17:55 1013 29.91 842 24.86 32.3 90.1 14 1.6 34.8
18:00 1013 29.91 842 24.86 32.2 89.9 14 1.3 34.4
18:05 1013 29.91 842 24.86 31.9 89.5 14 1.5 34.7
18:10 1013 29.91 842 24.86 31.2 88.1 15 1.7 35
18:15 1013 29.91 842 24.86 30.9 87.7 15 1.8 35.3
18:20 1013 29.91 842 24.86 31.1 87.9 15 1.6 34.8
18:25 1013 29.91 842 24.86 31.1 87.9 15 1.9 35.4
18:30 1013 29.91 842 24.86 31 87.7 15 2 35.6
18:35 1013 29.91 842 24.86 31.1 87.9 14 1 33.8
18:40 1013 29.91 842 24.86 31 87.8 17 3.6 38.5
18:45 1013 29.91 842 24.86 30.7 87.3 15 1.3 34.3
18:50 1013 29.91 843 24.89 30.3 86.5 14 0.4 32.7
18:55 1013 29.91 843 24.89 30.1 86.2 14 0.5 32.9
19:00 1013 29.91 843 24.89 30 86 15 0.5 32.8
19:05 1013 29.91 843 24.89 29.9 85.8 14 0.2 32.4
19:10 1013 29.91 843 24.89 29.8 85.7 15 0.5 32.9
19:15 1013 29.91 843 24.89 29.8 85.6 17 2.6 36.8
19:20 1013 29.91 843 24.89 29.6 85.4 22 6.3 43.4
19:25 1013 29.91 843 24.89 29.1 84.4 25 7.6 45.8
19:30 1013 29.91 843 24.89 28.6 83.5 25 7.1 44.7
19:35 1013 29.91 843 24.89 28.2 82.8 25 6.6 43.9
19:40 1013 29.91 843 24.89 28.1 82.5 26 6.8 44.3
19:45 1013 29.91 843 24.89 28 82.3 27 7.4 45.3
19:50 1014 29.94 843 24.89 27.4 81.4 29 8.1 46.6
19:55 1013 29.91 843 24.89 26.9 80.3 31 8.7 47.6
20:00 1014 29.94 843 24.89 26.5 79.7 34 9.5 49.1
20:05 1014 29.94 843 24.89 25.9 78.7 31 7.8 46
20:10 1014 29.94 843 24.89 25.4 77.8 34 8.8 47.8
20:15 1014 29.94 843 24.89 25.1 77.1 32 7.5 45.5
20:20 1014 29.94 843 24.89 24.7 76.5 34 7.9 46.1
20:25 1014 29.94 843 24.89 24.4 75.8 35 8.3 46.9
20:30 1014 29.94 843 24.89 23.9 75.1 35 7.8 46
20:35 1014 29.94 843 24.89 23.7 74.6 38 8.7 47.7
20:40 1014 29.94 843 24.89 23.3 73.9 37 7.9 46.2
20:45 1014 29.94 843 24.89 23.1 73.5 33 6.2 43.1
20:50 1014 29.94 843 24.89 23 73.4 33 6 42.7
20:55 1014 29.94 843 24.89 22.9 73.2 32 5.6 42.2
21:00 1014 29.94 843 24.89 22.8 73.1 33 5.7 42.3
21:05 1014 29.94 843 24.89 23 73.3 31 5.2 41.4
21:10 1014 29.94 843 24.89 23.4 74.1 30 5.2 41.3
21:15 1014 29.94 843 24.89 23.7 74.7 29 4.7 40.5
21:20 1014 29.94 843 24.89 24 75.2 28 4.8 40.7
21:25 1014 29.94 843 24.89 23.8 74.8 30 5.3 41.6
21:30 1014 29.94 843 24.89 23.6 74.4 30 5 41.1
21:35 1014 29.94 843 24.89 23.4 74.2 30 4.9 40.9
21:40 1014 29.94 843 24.89 23.2 73.7 30 4.9 40.8
21:45 1014 29.94 843 24.89 23 73.4 31 5.2 41.3
21:50 1014 29.94 843 24.89 22.8 73 30 4.6 40.3
21:55 1014 29.94 843 24.89 22.7 72.8 30 4.3 39.8
22:00 1014 29.94 843 24.89 22.9 73.1 29 4.1 39.4
22:05 1014 29.94 843 24.89 23.2 73.8 28 4.1 39.4
22:10 1014 29.94 843 24.89 23.7 74.7 28 4.4 39.9
22:15 1014 29.94 843 24.89 24 75.2 28 4.6 40.3
22:20 1014 29.94 843 24.89 24.3 75.8 27 4.4 40
22:25 1014 29.94 843 24.89 24.5 76 27 4.7 40.5
22:30 1014 29.94 843 24.89 24.7 76.4 27 4.5 40
22:35 1014 29.94 843 24.89 24.6 76.3 27 4.8 40.6
22:40 1014 29.94 843 24.89 24.6 76.3 28 5.1 41.1
22:45 1014 29.94 843 24.89 24.5 76.2 28 5.2 41.4
22:50 1014 29.94 843 24.89 24.5 76.1 29 5.4 41.7
22:55 1014 29.94 843 24.89 24.5 76.1 29 5.3 41.6
23:00 1014 29.94 843 24.89 24.7 76.4 28 5.4 41.7
23:05 1014 29.94 843 24.89 24.9 76.7 28 5.6 42.1
23:10 1014 29.94 843 24.89 24.9 76.8 28 5.6 42
23:15 1014 29.94 843 24.89 24.9 76.7 29 5.7 42.3
23:20 1014 29.94 843 24.89 24.8 76.7 29 5.8 42.5
23:25 1014 29.94 843 24.89 24.8 76.7 29 5.9 42.6
23:30 1014 29.94 843 24.89 24.8 76.7 29 6 42.8
23:35 1014 29.94 843 24.89 24.7 76.5 29 5.9 42.6
23:40 1014 29.94 843 24.89 24.7 76.5 30 6.1 43
23:45 1014 29.94 844 24.92 24.5 76.1 29 5.5 41.9
23:50 1014 29.94 844 24.92 24.3 75.8 29 5.3 41.6
23:55 1014 29.94 844 24.92 24 75.1 29 5.3 41.5
24:00 1014 29.94 844 24.92 23.7 74.7 26 3.4 38.2